createdAt,value
2023-03-19T00:00:34.008Z,10.04
2023-03-19T00:03:01.898Z,10.07
2023-03-19T00:05:29.932Z,10.03
2023-03-19T00:07:58.034Z,10.04
2023-03-19T00:10:26.226Z,10.05
2023-03-19T00:12:54.085Z,9.99
2023-03-19T00:15:23.548Z,10.02
2023-03-19T00:17:51.602Z,9.99
2023-03-19T00:20:20.407Z,9.92
2023-03-19T00:22:48.535Z,9.85
2023-03-19T00:25:16.673Z,9.81
2023-03-19T00:27:44.833Z,9.78
2023-03-19T00:30:13.971Z,9.70
2023-03-19T00:32:43.364Z,9.66
2023-03-19T00:35:11.984Z,9.57
2023-03-19T00:37:40.073Z,9.52
2023-03-19T00:40:10.371Z,9.57
2023-03-19T00:42:38.472Z,9.47
2023-03-19T00:45:07.634Z,9.52
2023-03-19T00:47:36.053Z,9.54
2023-03-19T00:50:07.118Z,9.54
2023-03-19T00:52:34.988Z,9.58
2023-03-19T00:55:02.828Z,9.55
2023-03-19T00:57:30.981Z,9.54
2023-03-19T00:59:58.836Z,9.43
2023-03-19T01:02:27.158Z,9.46
2023-03-19T01:04:55.145Z,9.44
2023-03-19T01:07:24.555Z,9.43
2023-03-19T01:09:52.917Z,9.34
2023-03-19T01:12:21.039Z,9.26
2023-03-19T01:14:48.990Z,9.13
2023-03-19T01:17:17.244Z,9.16
2023-03-19T01:19:45.146Z,9.18
2023-03-19T01:22:14.153Z,9.07
2023-03-19T01:24:43.486Z,9.04
2023-03-19T01:27:11.887Z,9.11
2023-03-19T01:29:40.104Z,8.94
2023-03-19T01:32:08.239Z,8.97
2023-03-19T01:34:36.649Z,9.00
2023-03-19T01:37:04.382Z,8.98
2023-03-19T01:39:32.734Z,9.03
2023-03-19T01:42:04.159Z,8.94
2023-03-19T01:44:34.767Z,9.05
2023-03-19T01:47:07.317Z,9.08
2023-03-19T01:49:35.914Z,8.95
2023-03-19T01:52:07.429Z,8.81
2023-03-19T01:54:36.842Z,8.88
2023-03-19T01:57:09.460Z,8.96
2023-03-19T01:59:41.171Z,9.02
2023-03-19T02:02:16.507Z,8.72
2023-03-19T02:04:48.430Z,8.87
2023-03-19T02:07:17.365Z,8.68
2023-03-19T02:09:45.316Z,8.79
2023-03-19T02:12:14.768Z,8.73
2023-03-19T02:14:42.799Z,8.63
2023-03-19T02:17:11.201Z,8.48
2023-03-19T02:19:47.012Z,8.57
2023-03-19T02:22:15.567Z,8.58
2023-03-19T02:24:51.233Z,8.61
2023-03-19T02:27:20.955Z,8.55
2023-03-19T02:29:49.520Z,8.51
2023-03-19T02:32:17.710Z,8.47
2023-03-19T02:34:46.530Z,8.57
2023-03-19T02:37:19.033Z,8.47
2023-03-19T02:39:52.857Z,8.42
2023-03-19T02:42:23.691Z,8.51
2023-03-19T02:44:51.696Z,8.46
2023-03-19T02:47:19.901Z,8.54
2023-03-19T02:49:47.954Z,8.47
2023-03-19T02:52:16.064Z,8.54
2023-03-19T02:54:44.024Z,8.55
2023-03-19T02:57:12.040Z,8.47
2023-03-19T02:59:41.380Z,8.56
2023-03-19T03:02:10.169Z,8.28
2023-03-19T03:04:38.331Z,8.27
2023-03-19T03:07:07.438Z,8.25
2023-03-19T03:09:35.887Z,8.42
2023-03-19T03:12:04.056Z,8.47
2023-03-19T03:14:32.253Z,8.57
2023-03-19T03:17:01.494Z,8.63
2023-03-19T03:19:29.409Z,8.50
2023-03-19T03:21:57.387Z,8.44
2023-03-19T03:24:25.434Z,8.57
2023-03-19T03:26:53.480Z,8.45
2023-03-19T03:29:21.488Z,8.35
2023-03-19T03:31:49.523Z,8.41
2023-03-19T03:34:19.314Z,8.53
2023-03-19T03:36:47.880Z,8.59
2023-03-19T03:39:16.276Z,8.64
2023-03-19T03:41:44.131Z,8.25
2023-03-19T03:44:11.892Z,8.42
2023-03-19T03:46:39.846Z,8.51
2023-03-19T03:49:07.659Z,8.58
2023-03-19T03:51:37.551Z,8.70
2023-03-19T03:54:05.922Z,8.61
2023-03-19T03:56:34.415Z,8.71
2023-03-19T03:59:02.180Z,8.68
2023-03-19T04:01:30.046Z,8.79
2023-03-19T04:03:58.706Z,8.82
2023-03-19T04:06:28.362Z,8.79
2023-03-19T04:08:57.731Z,8.92
2023-03-19T04:11:25.977Z,8.94
2023-03-19T04:13:56.683Z,8.99
2023-03-19T04:16:25.129Z,8.76
2023-03-19T04:18:53.170Z,8.82
2023-03-19T04:21:21.302Z,8.56
2023-03-19T04:23:49.108Z,8.66
2023-03-19T04:26:18.248Z,8.80
2023-03-19T04:28:46.098Z,8.89
2023-03-19T04:31:14.244Z,8.79
2023-03-19T04:33:42.189Z,8.85
2023-03-19T04:36:10.307Z,8.85
2023-03-19T04:38:38.260Z,8.81
2023-03-19T04:41:06.331Z,8.71
2023-03-19T04:43:35.591Z,8.78
2023-03-19T04:46:03.369Z,8.78
2023-03-19T04:48:32.137Z,8.87
2023-03-19T04:51:00.276Z,8.75
2023-03-19T04:53:28.256Z,8.58
2023-03-19T04:55:56.471Z,8.55
2023-03-19T04:58:24.486Z,8.76
2023-03-19T05:00:54.301Z,8.82
2023-03-19T05:03:23.148Z,8.96
2023-03-19T05:05:50.926Z,8.91
2023-03-19T05:08:19.091Z,8.97
2023-03-19T05:10:47.348Z,8.63
2023-03-19T05:13:15.149Z,8.78
2023-03-19T05:15:44.471Z,8.60
2023-03-19T05:18:14.664Z,8.71
2023-03-19T05:20:42.806Z,8.77
2023-03-19T05:23:10.726Z,8.83
2023-03-19T05:25:41.773Z,8.67
2023-03-19T05:28:09.837Z,8.40
2023-03-19T05:30:37.788Z,8.21
2023-03-19T05:33:07.034Z,8.04
2023-03-19T05:35:39.887Z,7.97
2023-03-19T05:38:08.199Z,7.87
2023-03-19T05:40:36.195Z,7.74
2023-03-19T05:43:04.834Z,7.69
2023-03-19T05:45:32.822Z,7.40
2023-03-19T05:48:04.254Z,7.33
2023-03-19T05:50:33.396Z,7.46
2023-03-19T05:53:03.324Z,7.58
2023-03-19T05:55:31.233Z,7.70
2023-03-19T05:57:59.536Z,7.78
2023-03-19T06:00:37.500Z,7.84
2023-03-19T06:03:05.475Z,7.94
2023-03-19T06:05:33.504Z,7.95
2023-03-19T06:08:02.791Z,8.02
2023-03-19T06:10:30.910Z,7.96
2023-03-19T06:12:58.728Z,8.13
2023-03-19T06:15:27.298Z,8.22
2023-03-19T06:17:55.156Z,8.31
2023-03-19T06:20:23.258Z,8.35
2023-03-19T06:22:51.332Z,8.49
2023-03-19T06:25:20.659Z,8.62
2023-03-19T06:27:48.636Z,8.83
2023-03-19T06:30:17.223Z,9.02
2023-03-19T06:32:45.376Z,9.14
2023-03-19T06:35:13.599Z,9.09
2023-03-19T06:37:44.603Z,9.14
2023-03-19T06:40:13.412Z,9.20
2023-03-19T06:42:46.687Z,9.27
2023-03-19T06:45:16.591Z,9.38
2023-03-19T06:47:45.198Z,9.43
2023-03-19T06:50:14.432Z,9.63
2023-03-19T06:52:42.565Z,9.71
2023-03-19T06:55:11.340Z,9.74
2023-03-19T06:57:39.701Z,9.77
2023-03-19T07:00:11.763Z,9.79
2023-03-19T07:02:40.055Z,9.80
2023-03-19T07:05:08.415Z,9.80
2023-03-19T07:07:36.438Z,9.70
2023-03-19T07:10:05.036Z,9.70
2023-03-19T07:12:33.088Z,9.69
2023-03-19T07:15:01.081Z,9.80
2023-03-19T07:17:30.564Z,9.88
2023-03-19T07:19:58.437Z,9.80
2023-03-19T07:22:26.527Z,9.81
2023-03-19T07:24:54.572Z,9.81
2023-03-19T07:27:23.319Z,9.79
2023-03-19T07:29:51.239Z,9.78
2023-03-19T07:32:19.190Z,9.63
2023-03-19T07:34:49.000Z,9.74
2023-03-19T07:37:17.054Z,9.59
2023-03-19T07:39:44.882Z,9.80
2023-03-19T07:42:16.296Z,10.18
2023-03-19T07:44:44.444Z,10.35
2023-03-19T07:47:27.975Z,10.77
2023-03-19T07:49:58.176Z,11.10
2023-03-19T07:52:26.569Z,10.98
2023-03-19T07:54:55.056Z,11.18
2023-03-19T07:57:23.275Z,11.52
2023-03-19T07:59:51.369Z,11.65
2023-03-19T08:02:23.613Z,12.02
2023-03-19T08:04:52.084Z,12.14
2023-03-19T08:07:21.691Z,12.19
2023-03-19T08:09:49.675Z,12.25
2023-03-19T08:12:17.761Z,12.25
2023-03-19T08:14:45.708Z,12.05
2023-03-19T08:17:13.763Z,11.91
2023-03-19T08:19:41.797Z,12.05
2023-03-19T08:22:09.647Z,12.06
2023-03-19T08:24:38.987Z,11.79
2023-03-19T08:27:07.860Z,12.06
2023-03-19T08:29:36.640Z,12.26
2023-03-19T08:32:04.806Z,12.30
2023-03-19T08:34:34.208Z,12.28
2023-03-19T08:37:02.124Z,12.24
2023-03-19T08:39:30.197Z,12.16
2023-03-19T08:41:59.620Z,11.99
2023-03-19T08:44:27.642Z,11.85
2023-03-19T08:46:55.765Z,11.63
2023-03-19T08:49:23.776Z,11.57
2023-03-19T08:51:51.841Z,11.38
2023-03-19T08:54:22.575Z,11.06
2023-03-19T08:56:51.042Z,10.90
2023-03-19T08:59:21.038Z,10.71
2023-03-19T09:01:53.219Z,10.57
2023-03-19T09:04:22.564Z,10.55
2023-03-19T09:06:51.722Z,10.41
2023-03-19T09:09:20.410Z,10.35
2023-03-19T09:11:48.767Z,10.32
2023-03-19T09:14:20.143Z,10.21
2023-03-19T09:16:49.877Z,10.24
2023-03-19T09:19:17.783Z,10.12
2023-03-19T09:21:46.344Z,10.08
2023-03-19T09:24:14.257Z,10.12
2023-03-19T09:26:42.158Z,10.11
2023-03-19T09:29:10.229Z,10.14
2023-03-19T09:31:38.565Z,10.05
2023-03-19T09:34:08.844Z,10.04
2023-03-19T09:36:37.928Z,10.13
2023-03-19T09:39:07.047Z,10.26
2023-03-19T09:41:42.121Z,10.21
2023-03-19T09:44:16.862Z,10.31
2023-03-19T09:46:53.179Z,10.45
2023-03-19T09:49:27.530Z,10.67
2023-03-19T09:51:58.694Z,10.65
2023-03-19T09:54:33.708Z,10.43
2023-03-19T09:57:04.573Z,10.55
2023-03-19T09:59:32.750Z,10.60
2023-03-19T10:02:28.157Z,10.61
2023-03-19T10:05:05.549Z,10.87
2023-03-19T10:07:55.760Z,11.21
2023-03-19T10:10:40.377Z,11.39
2023-03-19T10:13:21.393Z,11.40
2023-03-19T10:15:51.919Z,11.38
2023-03-19T10:18:22.749Z,11.58
2023-03-19T10:20:56.783Z,11.61
2023-03-19T10:23:33.822Z,11.74
2023-03-19T10:26:05.501Z,11.57
2023-03-19T10:28:38.573Z,11.56
2023-03-19T10:31:27.036Z,11.65
2023-03-19T10:34:06.549Z,11.78
2023-03-19T10:36:37.510Z,11.95
2023-03-19T10:39:08.154Z,11.88
2023-03-19T10:41:47.996Z,11.64
2023-03-19T10:44:26.731Z,11.55
2023-03-19T10:46:54.476Z,12.07
2023-03-19T10:49:22.479Z,12.28
2023-03-19T10:51:52.596Z,12.31
2023-03-19T10:54:23.214Z,12.58
2023-03-19T10:56:52.460Z,12.60
2023-03-19T10:59:26.904Z,12.42
2023-03-19T11:01:59.564Z,12.33
2023-03-19T11:04:29.930Z,12.14
2023-03-19T11:07:09.937Z,12.26
2023-03-19T11:09:39.582Z,12.46
2023-03-19T11:12:17.420Z,12.78
2023-03-19T11:14:48.215Z,12.51
2023-03-19T11:17:24.077Z,13.23
2023-03-19T11:19:57.658Z,13.22
2023-03-19T11:22:29.602Z,12.74
2023-03-19T11:25:01.054Z,13.19
2023-03-19T11:27:31.626Z,13.06
2023-03-19T11:30:00.141Z,13.22
2023-03-19T11:33:01.733Z,13.33
2023-03-19T11:35:34.521Z,13.59
2023-03-19T11:38:05.883Z,13.93
2023-03-19T11:40:44.615Z,14.02
2023-03-19T11:43:41.113Z,14.32
2023-03-19T11:46:19.507Z,14.59
2023-03-19T11:49:20.203Z,14.70
2023-03-19T11:51:52.382Z,14.83
2023-03-19T11:54:28.746Z,14.74
2023-03-19T11:57:02.198Z,14.80
2023-03-19T11:59:39.328Z,14.76
2023-03-19T12:02:42.169Z,14.76
2023-03-19T12:05:22.148Z,14.93
2023-03-19T12:07:59.918Z,14.77
2023-03-19T12:10:40.778Z,14.83
2023-03-19T12:13:21.367Z,15.06
2023-03-19T12:16:02.020Z,15.14
2023-03-19T12:18:47.153Z,15.29
2023-03-19T12:21:21.558Z,15.03
2023-03-19T12:24:03.700Z,14.89
2023-03-19T12:26:45.487Z,14.72
2023-03-19T12:29:24.429Z,14.29
2023-03-19T12:32:06.365Z,14.49
2023-03-19T12:34:43.679Z,14.70
2023-03-19T12:37:21.519Z,14.97
2023-03-19T12:39:59.527Z,15.20
2023-03-19T12:42:34.047Z,15.31
2023-03-19T12:45:07.775Z,15.47
2023-03-19T12:47:40.705Z,15.62
2023-03-19T12:50:13.132Z,15.36
2023-03-19T12:52:51.283Z,15.34
2023-03-19T12:55:23.086Z,15.33
2023-03-19T12:57:55.712Z,15.48
2023-03-19T13:00:31.416Z,15.32
2023-03-19T13:03:07.542Z,15.36
2023-03-19T13:05:41.814Z,15.55
2023-03-19T13:08:16.971Z,15.61
2023-03-19T13:10:44.885Z,15.63
2023-03-19T13:13:40.145Z,15.39
2023-03-19T13:16:16.971Z,15.46
2023-03-19T13:18:53.011Z,15.64
2023-03-19T13:21:24.932Z,15.81
2023-03-19T13:24:06.013Z,15.90
2023-03-19T13:26:35.928Z,15.70
2023-03-19T13:29:11.502Z,15.94
2023-03-19T13:31:39.708Z,15.96
2023-03-19T13:34:20.285Z,16.16
2023-03-19T13:36:54.174Z,16.30
2023-03-19T13:39:27.295Z,16.53
2023-03-19T13:42:10.268Z,16.12
2023-03-19T13:44:50.122Z,16.32
2023-03-19T13:47:40.482Z,16.56
2023-03-19T13:50:52.266Z,16.77
2023-03-19T13:53:40.872Z,16.88
2023-03-19T13:56:30.346Z,16.94
2023-03-19T13:59:23.860Z,17.19
2023-03-19T14:01:53.473Z,17.27
2023-03-19T14:04:25.689Z,17.20
2023-03-19T14:06:56.408Z,17.44
2023-03-19T14:09:37.415Z,17.56
2023-03-19T14:12:33.033Z,17.34
2023-03-19T14:15:05.339Z,17.40
2023-03-19T14:17:37.532Z,17.21
2023-03-19T14:20:32.105Z,17.34
2023-03-19T14:23:26.254Z,17.43
2023-03-19T14:26:08.316Z,17.42
2023-03-19T14:28:43.272Z,17.35
2023-03-19T14:31:22.391Z,17.49
2023-03-19T14:33:57.080Z,17.53
2023-03-19T14:36:25.243Z,17.59
2023-03-19T14:38:57.363Z,17.64
2023-03-19T14:41:29.372Z,17.78
2023-03-19T14:44:24.919Z,17.81
2023-03-19T14:47:12.479Z,17.79
2023-03-19T14:49:56.106Z,17.86
2023-03-19T14:52:26.728Z,17.82
2023-03-19T14:54:59.874Z,18.00
2023-03-19T14:57:29.372Z,17.90
2023-03-19T14:59:58.554Z,17.77
2023-03-19T15:02:38.346Z,17.75
2023-03-19T15:05:10.358Z,17.41
2023-03-19T15:07:41.629Z,17.35
2023-03-19T15:10:18.107Z,17.20
2023-03-19T15:13:18.970Z,17.06
2023-03-19T15:16:22.584Z,17.01
2023-03-19T15:18:51.002Z,16.88
2023-03-19T15:21:21.544Z,16.84
2023-03-19T15:23:50.487Z,16.82
2023-03-19T15:26:31.204Z,16.74
2023-03-19T15:28:59.350Z,16.72
2023-03-19T15:31:51.735Z,16.71
2023-03-19T15:34:27.906Z,16.68
2023-03-19T15:37:03.491Z,16.63
2023-03-19T15:39:36.429Z,16.57
2023-03-19T15:42:06.103Z,16.51
2023-03-19T15:44:40.765Z,16.46
2023-03-19T15:47:12.965Z,16.53
2023-03-19T15:49:44.888Z,16.54
2023-03-19T15:52:20.966Z,16.58
2023-03-19T15:54:49.095Z,16.66
2023-03-19T15:57:19.052Z,16.78
2023-03-19T15:59:47.980Z,16.80
2023-03-19T16:02:23.351Z,16.87
2023-03-19T16:05:18.307Z,16.84
2023-03-19T16:07:44.450Z,16.83
2023-03-19T16:10:35.147Z,16.74
2023-03-19T16:13:08.433Z,16.73
2023-03-19T16:15:43.714Z,16.71
2023-03-19T16:18:25.361Z,16.67
2023-03-19T16:21:08.336Z,16.63
2023-03-19T16:23:39.278Z,16.57
2023-03-19T16:26:18.101Z,16.56
2023-03-19T16:28:56.500Z,16.57
2023-03-19T16:31:28.834Z,16.50
2023-03-19T16:33:57.446Z,16.37
2023-03-19T16:36:33.446Z,16.30
2023-03-19T16:39:32.617Z,16.20
2023-03-19T16:42:28.493Z,16.06
2023-03-19T16:44:58.325Z,15.96
2023-03-19T16:47:28.642Z,15.85
2023-03-19T16:49:56.539Z,15.73
2023-03-19T16:52:25.724Z,15.60
2023-03-19T16:54:55.439Z,15.52
2023-03-19T16:57:23.612Z,15.43
2023-03-19T16:59:54.662Z,15.35
2023-03-19T17:02:22.874Z,15.25
2023-03-19T17:04:50.949Z,15.26
2023-03-19T17:07:18.898Z,15.19
2023-03-19T17:09:47.048Z,15.16
2023-03-19T17:12:18.887Z,15.09
2023-03-19T17:14:48.744Z,14.98
2023-03-19T17:17:20.509Z,14.86
2023-03-19T17:19:49.326Z,14.75
2023-03-19T17:22:17.460Z,14.70
2023-03-19T17:24:45.577Z,14.60
2023-03-19T17:27:17.262Z,14.56
2023-03-19T17:29:45.942Z,14.63
2023-03-19T17:32:19.410Z,14.52
2023-03-19T17:34:51.109Z,14.44
2023-03-19T17:37:21.926Z,14.39
2023-03-19T17:39:49.974Z,14.38
2023-03-19T17:42:22.288Z,14.29
2023-03-19T17:44:50.360Z,14.23
2023-03-19T17:47:19.894Z,14.18
2023-03-19T17:49:48.275Z,14.18
2023-03-19T17:52:18.507Z,14.10
2023-03-19T17:54:46.995Z,13.99
2023-03-19T17:57:17.695Z,13.95
2023-03-19T17:59:47.514Z,13.95
2023-03-19T18:02:27.641Z,13.89
2023-03-19T18:04:56.438Z,13.85
2023-03-19T18:07:24.568Z,13.81
2023-03-19T18:09:52.605Z,13.78
2023-03-19T18:12:20.675Z,13.75
2023-03-19T18:14:49.976Z,13.77
2023-03-19T18:17:20.639Z,13.78
2023-03-19T18:19:50.793Z,13.84
2023-03-19T18:22:20.412Z,13.85
2023-03-19T18:24:48.732Z,13.79
2023-03-19T18:27:17.958Z,13.78
2023-03-19T18:29:46.048Z,13.83
2023-03-19T18:32:17.994Z,13.92
2023-03-19T18:34:46.268Z,13.87
2023-03-19T18:37:18.186Z,13.91
2023-03-19T18:39:46.841Z,13.84
2023-03-19T18:42:15.899Z,13.80
2023-03-19T18:44:44.098Z,13.81
2023-03-19T18:47:16.661Z,13.81
2023-03-19T18:49:47.312Z,13.73
2023-03-19T18:52:19.517Z,13.63
2023-03-19T18:54:47.753Z,13.58
2023-03-19T18:57:17.269Z,13.54
2023-03-19T18:59:46.662Z,13.45
2023-03-19T19:02:34.696Z,13.37
2023-03-19T19:05:03.222Z,13.33
2023-03-19T19:07:31.282Z,13.32
2023-03-19T19:09:59.186Z,13.29
2023-03-19T19:12:28.270Z,13.36
2023-03-19T19:14:58.604Z,13.49
2023-03-19T19:17:29.715Z,13.48
2023-03-19T19:19:57.777Z,13.42
2023-03-19T19:22:25.825Z,13.38
2023-03-19T19:24:53.844Z,13.38
2023-03-19T19:27:26.710Z,13.30
2023-03-19T19:29:55.618Z,13.25
2023-03-19T19:32:26.355Z,13.29
2023-03-19T19:34:56.701Z,13.29
2023-03-19T19:37:24.995Z,13.26
2023-03-19T19:39:53.532Z,13.25
2023-03-19T19:42:23.698Z,13.23
2023-03-19T19:44:55.217Z,13.22
2023-03-19T19:47:23.461Z,13.19
2023-03-19T19:49:51.617Z,13.17
2023-03-19T19:52:21.943Z,13.17
2023-03-19T19:54:51.935Z,13.16
2023-03-19T19:57:23.042Z,13.16
2023-03-19T19:59:52.108Z,13.20
2023-03-19T20:02:22.695Z,13.23
2023-03-19T20:04:50.930Z,13.29
2023-03-19T20:07:20.590Z,13.32
2023-03-19T20:09:48.951Z,13.38
2023-03-19T20:12:21.739Z,13.29
2023-03-19T20:14:50.751Z,13.23
2023-03-19T20:17:20.863Z,13.20
2023-03-19T20:19:48.837Z,13.20
2023-03-19T20:22:17.040Z,13.18
2023-03-19T20:24:50.400Z,13.15
2023-03-19T20:27:21.843Z,13.20
2023-03-19T20:29:50.591Z,13.16
2023-03-19T20:32:33.011Z,13.14
2023-03-19T20:35:01.669Z,13.12
2023-03-19T20:37:31.388Z,13.09
2023-03-19T20:40:13.512Z,12.98
2023-03-19T20:42:47.940Z,12.99
2023-03-19T20:45:20.142Z,13.00
2023-03-19T20:47:52.806Z,13.01
2023-03-19T20:50:34.979Z,12.99
2023-03-19T20:53:26.759Z,13.00
2023-03-19T20:56:03.238Z,13.05
2023-03-19T20:58:34.927Z,12.98
2023-03-19T21:01:08.386Z,12.99
2023-03-19T21:03:36.572Z,13.01
2023-03-19T21:06:06.845Z,12.96
2023-03-19T21:08:37.401Z,12.91
2023-03-19T21:11:11.490Z,12.93
2023-03-19T21:13:47.912Z,12.89
2023-03-19T21:16:19.925Z,12.90
2023-03-19T21:18:49.012Z,12.92
2023-03-19T21:21:21.988Z,12.92
2023-03-19T21:23:55.991Z,12.97
2023-03-19T21:26:26.252Z,12.91
2023-03-19T21:29:02.544Z,12.94
2023-03-19T21:31:33.618Z,12.84
2023-03-19T21:34:04.242Z,12.94
2023-03-19T21:36:35.714Z,12.98
2023-03-19T21:39:03.860Z,12.95
2023-03-19T21:41:37.353Z,12.88
2023-03-19T21:44:08.459Z,12.92
2023-03-19T21:46:36.977Z,12.93
2023-03-19T21:49:07.853Z,12.93
2023-03-19T21:51:35.980Z,12.86
2023-03-19T21:54:05.941Z,12.93
2023-03-19T21:56:38.189Z,12.89
2023-03-19T21:59:16.388Z,12.89
2023-03-19T22:01:44.591Z,12.89
2023-03-19T22:04:14.560Z,12.97
2023-03-19T22:06:46.688Z,12.95
2023-03-19T22:09:14.699Z,12.94
2023-03-19T22:11:46.276Z,13.00
2023-03-19T22:14:19.246Z,13.03
2023-03-19T22:16:52.453Z,12.98
2023-03-19T22:19:20.899Z,12.98
2023-03-19T22:21:49.507Z,12.97
2023-03-19T22:24:17.633Z,13.01
2023-03-19T22:26:49.888Z,12.92
2023-03-19T22:29:20.607Z,12.83
2023-03-19T22:31:49.853Z,12.80
2023-03-19T22:34:20.787Z,12.82
2023-03-19T22:36:49.080Z,12.85
2023-03-19T22:39:17.698Z,12.81
2023-03-19T22:41:49.454Z,12.70
2023-03-19T22:44:24.495Z,12.70
2023-03-19T22:46:54.093Z,12.64
2023-03-19T22:49:22.205Z,12.69
2023-03-19T22:51:51.516Z,12.76
2023-03-19T22:54:19.733Z,12.67
2023-03-19T22:56:49.093Z,12.62
2023-03-19T22:59:17.369Z,12.61
2023-03-19T23:01:47.334Z,12.72
2023-03-19T23:04:21.762Z,12.62
2023-03-19T23:06:50.080Z,12.63
2023-03-19T23:09:20.400Z,12.57
2023-03-19T23:11:50.051Z,12.54
2023-03-19T23:14:29.089Z,12.58
2023-03-19T23:17:01.843Z,12.62
2023-03-19T23:19:31.989Z,12.57
2023-03-19T23:22:00.980Z,12.61
2023-03-19T23:24:30.388Z,12.53
2023-03-19T23:27:02.919Z,12.60
2023-03-19T23:29:34.153Z,12.58
2023-03-19T23:32:03.267Z,12.46
2023-03-19T23:34:33.533Z,12.42
2023-03-19T23:37:03.405Z,12.39
2023-03-19T23:39:31.320Z,12.37
2023-03-19T23:42:00.527Z,12.34
2023-03-19T23:44:29.538Z,12.29
2023-03-19T23:47:02.767Z,12.26
2023-03-19T23:49:33.161Z,12.21
2023-03-19T23:52:01.882Z,12.16
2023-03-19T23:54:32.550Z,12.15
2023-03-19T23:57:05.403Z,12.21
2023-03-19T23:59:36.987Z,12.17
